createdAt,value
2022-10-10T00:00:53.214Z,1.58
2022-10-10T00:03:20.528Z,2.25
2022-10-10T00:05:47.712Z,1.95
2022-10-10T00:08:14.712Z,2.00
2022-10-10T00:10:41.601Z,1.67
2022-10-10T00:13:08.624Z,2.20
2022-10-10T00:15:35.700Z,1.83
2022-10-10T00:18:03.866Z,1.75
2022-10-10T00:20:30.853Z,2.08
2022-10-10T00:22:57.674Z,2.10
2022-10-10T00:25:24.643Z,1.67
2022-10-10T00:27:51.520Z,1.67
2022-10-10T00:30:18.610Z,1.88
2022-10-10T00:32:45.782Z,1.73
2022-10-10T00:35:13.109Z,1.80
2022-10-10T00:37:39.974Z,2.08
2022-10-10T00:40:07.604Z,1.80
2022-10-10T00:42:34.478Z,2.40
2022-10-10T00:45:24.675Z,2.05
2022-10-10T00:47:53.556Z,2.00
2022-10-10T00:50:22.530Z,2.40
2022-10-10T00:52:50.240Z,1.77
2022-10-10T00:55:17.646Z,1.52
2022-10-10T00:57:44.670Z,2.35
2022-10-10T01:00:11.866Z,2.25
2022-10-10T01:02:38.794Z,2.25
2022-10-10T01:05:05.872Z,1.98
2022-10-10T01:07:33.717Z,1.95
2022-10-10T01:10:06.971Z,2.97
2022-10-10T01:12:39.985Z,2.40
2022-10-10T01:15:23.812Z,2.10
2022-10-10T01:17:56.559Z,2.08
2022-10-10T01:20:45.154Z,2.60
2022-10-10T01:23:36.302Z,2.13
2022-10-10T01:26:27.509Z,2.50
2022-10-10T01:29:11.482Z,2.28
2022-10-10T01:31:40.479Z,2.22
2022-10-10T01:34:22.648Z,1.92
2022-10-10T01:36:52.675Z,2.22
2022-10-10T01:39:54.733Z,2.35
2022-10-10T01:42:44.006Z,2.70
2022-10-10T01:45:11.918Z,2.45
2022-10-10T01:47:39.278Z,2.33
2022-10-10T01:50:10.892Z,2.50
2022-10-10T01:52:58.430Z,2.50
2022-10-10T01:55:39.070Z,3.05
2022-10-10T01:58:08.696Z,2.50
2022-10-10T02:00:52.776Z,2.67
2022-10-10T02:03:36.351Z,2.95
2022-10-10T02:06:13.239Z,2.63
2022-10-10T02:08:51.344Z,2.60
2022-10-10T02:11:18.215Z,2.40
2022-10-10T02:13:46.690Z,2.65
2022-10-10T02:16:25.305Z,2.95
2022-10-10T02:18:54.722Z,3.00
2022-10-10T02:21:22.485Z,2.80
2022-10-10T02:23:51.166Z,2.70
2022-10-10T02:26:19.251Z,2.65
2022-10-10T02:28:58.889Z,3.97
2022-10-10T02:31:41.192Z,6.78
2022-10-10T02:34:16.545Z,5.40
2022-10-10T02:36:46.723Z,3.90
2022-10-10T02:39:14.517Z,3.03
2022-10-10T02:41:43.336Z,2.67
2022-10-10T02:44:12.831Z,2.92
2022-10-10T02:46:40.004Z,2.90
2022-10-10T02:49:10.305Z,2.72
2022-10-10T02:51:38.402Z,2.70
2022-10-10T02:54:06.037Z,2.90
2022-10-10T02:56:33.129Z,2.85
2022-10-10T02:59:00.084Z,3.03
2022-10-10T03:01:27.094Z,2.90
2022-10-10T03:03:54.254Z,3.13
2022-10-10T03:06:21.156Z,2.78
2022-10-10T03:08:47.992Z,2.75
2022-10-10T03:11:15.795Z,2.38
2022-10-10T03:13:42.669Z,2.92
2022-10-10T03:16:09.703Z,3.22
2022-10-10T03:18:36.629Z,2.17
2022-10-10T03:21:03.980Z,2.53
2022-10-10T03:23:30.977Z,2.20
2022-10-10T03:25:57.873Z,3.65
2022-10-10T03:28:24.820Z,2.55
2022-10-10T03:30:51.694Z,3.10
2022-10-10T03:33:18.657Z,2.92
2022-10-10T03:35:45.665Z,2.90
2022-10-10T03:38:13.532Z,3.03
2022-10-10T03:40:44.531Z,2.20
2022-10-10T03:43:13.956Z,2.78
2022-10-10T03:45:45.571Z,2.58
2022-10-10T03:48:12.609Z,2.60
2022-10-10T03:50:39.747Z,3.47
2022-10-10T03:53:07.105Z,2.70
2022-10-10T03:55:34.261Z,2.90
2022-10-10T03:58:01.199Z,3.05
2022-10-10T04:00:28.151Z,2.72
2022-10-10T04:02:55.244Z,3.63
2022-10-10T04:05:22.240Z,2.92
2022-10-10T04:07:49.194Z,3.97
2022-10-10T04:10:16.391Z,3.63
2022-10-10T04:12:43.386Z,3.80
2022-10-10T04:15:10.805Z,3.80
2022-10-10T04:17:37.745Z,3.65
2022-10-10T04:20:05.096Z,4.43
2022-10-10T04:22:32.141Z,3.58
2022-10-10T04:24:59.046Z,3.00
2022-10-10T04:27:25.983Z,3.45
2022-10-10T04:29:52.932Z,3.25
2022-10-10T04:32:19.884Z,3.38
2022-10-10T04:34:46.837Z,3.40
2022-10-10T04:37:13.842Z,3.38
2022-10-10T04:39:40.759Z,3.20
2022-10-10T04:42:07.729Z,3.30
2022-10-10T04:44:34.841Z,2.97
2022-10-10T04:47:01.884Z,3.90
2022-10-10T04:49:28.855Z,3.40
2022-10-10T04:51:55.752Z,3.63
2022-10-10T04:54:22.697Z,3.30
2022-10-10T04:56:49.570Z,3.53
2022-10-10T04:59:16.484Z,3.88
2022-10-10T05:01:43.454Z,4.15
2022-10-10T05:04:10.515Z,3.88
2022-10-10T05:06:37.447Z,3.55
2022-10-10T05:09:04.630Z,3.92
2022-10-10T05:11:31.605Z,4.57
2022-10-10T05:13:58.499Z,3.95
2022-10-10T05:16:25.395Z,4.00
2022-10-10T05:18:52.393Z,3.60
2022-10-10T05:21:19.416Z,3.85
2022-10-10T05:23:46.362Z,4.65
2022-10-10T05:26:13.391Z,3.53
2022-10-10T05:28:40.405Z,4.20
2022-10-10T05:31:07.495Z,4.40
2022-10-10T05:33:35.068Z,4.75
2022-10-10T05:36:06.613Z,3.95
2022-10-10T05:38:33.671Z,4.45
2022-10-10T05:41:01.009Z,4.20
2022-10-10T05:43:28.085Z,4.28
2022-10-10T05:45:55.213Z,4.65
2022-10-10T05:48:22.463Z,5.22
2022-10-10T05:50:57.010Z,3.88
2022-10-10T05:53:25.439Z,4.50
2022-10-10T05:55:52.951Z,4.50
2022-10-10T05:58:20.037Z,4.13
2022-10-10T06:00:48.005Z,4.80
2022-10-10T06:03:17.320Z,5.70
2022-10-10T06:05:45.859Z,5.07
2022-10-10T06:08:12.872Z,4.43
2022-10-10T06:10:41.937Z,4.88
2022-10-10T06:13:09.453Z,4.60
2022-10-10T06:15:36.484Z,4.38
2022-10-10T06:18:03.723Z,5.03
2022-10-10T06:20:30.665Z,4.57
2022-10-10T06:22:57.548Z,4.70
2022-10-10T06:25:39.512Z,5.32
2022-10-10T06:28:08.366Z,4.65
2022-10-10T06:30:39.131Z,4.78
2022-10-10T06:33:06.035Z,4.70
2022-10-10T06:35:32.945Z,4.80
2022-10-10T06:37:59.857Z,4.57
2022-10-10T06:40:26.864Z,4.68
2022-10-10T06:42:54.138Z,5.22
2022-10-10T06:45:21.411Z,4.90
2022-10-10T06:47:48.327Z,5.43
2022-10-10T06:50:15.307Z,5.40
2022-10-10T06:52:42.158Z,6.10
2022-10-10T06:55:09.687Z,5.72
2022-10-10T06:57:36.641Z,5.13
2022-10-10T07:00:04.528Z,5.25
2022-10-10T07:02:31.570Z,4.40
2022-10-10T07:04:58.536Z,4.65
2022-10-10T07:07:25.439Z,4.72
2022-10-10T07:09:52.394Z,4.72
2022-10-10T07:12:19.262Z,5.07
2022-10-10T07:14:46.173Z,4.63
2022-10-10T07:17:13.033Z,4.63
2022-10-10T07:19:40.032Z,4.70
2022-10-10T07:22:06.898Z,4.53
2022-10-10T07:24:33.855Z,4.47
2022-10-10T07:27:05.044Z,5.45
2022-10-10T07:29:35.540Z,4.63
2022-10-10T07:32:02.466Z,4.72
2022-10-10T07:34:29.352Z,4.60
2022-10-10T07:36:56.268Z,4.93
2022-10-10T07:39:24.546Z,4.80
2022-10-10T07:41:55.166Z,5.25
2022-10-10T07:44:24.563Z,4.97
2022-10-10T07:46:51.450Z,5.18
2022-10-10T07:49:18.450Z,4.75
2022-10-10T07:51:45.379Z,4.85
2022-10-10T07:54:12.366Z,4.85
2022-10-10T07:56:39.242Z,4.90
2022-10-10T07:59:06.330Z,4.50
2022-10-10T08:01:33.228Z,4.00
2022-10-10T08:04:00.243Z,4.63
2022-10-10T08:06:27.416Z,3.65
2022-10-10T08:08:54.303Z,4.45
2022-10-10T08:11:22.332Z,3.42
2022-10-10T08:13:50.036Z,4.47
2022-10-10T08:16:17.954Z,3.50
2022-10-10T08:18:44.983Z,4.10
2022-10-10T08:21:13.727Z,3.50
2022-10-10T08:23:40.856Z,3.35
2022-10-10T08:26:10.537Z,3.63
2022-10-10T08:28:38.342Z,4.22
2022-10-10T08:31:06.932Z,3.42
2022-10-10T08:33:33.864Z,4.18
2022-10-10T08:36:08.928Z,3.35
2022-10-10T08:38:36.407Z,3.22
2022-10-10T08:41:40.709Z,3.15
2022-10-10T08:44:25.811Z,3.63
2022-10-10T08:46:54.774Z,3.65
2022-10-10T08:49:35.737Z,3.65
2022-10-10T08:52:14.288Z,3.47
2022-10-10T08:54:41.814Z,2.90
2022-10-10T08:57:34.914Z,3.13
2022-10-10T09:00:14.300Z,3.42
2022-10-10T09:03:03.156Z,3.35
2022-10-10T09:05:49.826Z,3.50
2022-10-10T09:08:26.780Z,3.40
2022-10-10T09:11:19.855Z,3.03
2022-10-10T09:14:02.081Z,2.80
2022-10-10T09:17:05.822Z,3.35
2022-10-10T09:22:22.629Z,3.35
2022-10-10T09:24:57.664Z,2.97
2022-10-10T09:27:30.443Z,2.92
2022-10-10T09:30:07.244Z,3.53
2022-10-10T09:32:39.245Z,3.90
2022-10-10T09:35:14.418Z,2.85
2022-10-10T09:37:47.439Z,3.65
2022-10-10T09:40:40.009Z,3.58
2022-10-10T09:43:20.226Z,3.10
2022-10-10T09:45:53.136Z,4.85
2022-10-10T09:48:24.169Z,3.40
2022-10-10T09:50:51.126Z,3.33
2022-10-10T09:53:18.163Z,3.13
2022-10-10T09:55:46.887Z,3.72
2022-10-10T09:58:34.491Z,3.42
2022-10-10T10:01:12.855Z,2.78
2022-10-10T10:03:40.148Z,3.25
2022-10-10T10:06:09.384Z,2.92
2022-10-10T10:08:37.163Z,3.58
2022-10-10T10:11:05.200Z,3.17
2022-10-10T10:13:34.501Z,3.10
2022-10-10T10:16:13.319Z,2.60
2022-10-10T10:18:45.884Z,3.25
2022-10-10T10:21:14.416Z,2.55
2022-10-10T10:23:50.794Z,3.53
2022-10-10T10:26:28.692Z,4.18
2022-10-10T10:28:57.841Z,2.95
2022-10-10T10:31:42.735Z,3.85
2022-10-10T10:34:33.195Z,3.13
2022-10-10T10:37:21.984Z,3.38
2022-10-10T10:40:16.604Z,3.42
2022-10-10T10:43:08.336Z,3.00
2022-10-10T10:45:47.991Z,2.88
2022-10-10T10:48:33.506Z,3.50
2022-10-10T10:51:27.181Z,3.33
2022-10-10T10:54:22.367Z,3.70
2022-10-10T10:57:11.294Z,4.05
2022-10-10T11:00:22.380Z,3.28
2022-10-10T11:05:16.143Z,3.20
2022-10-10T11:06:53.941Z,3.35
2022-10-10T11:09:49.087Z,3.63
2022-10-10T11:12:43.325Z,2.75
2022-10-10T11:15:17.344Z,3.00
2022-10-10T11:18:05.868Z,3.38
2022-10-10T11:20:42.406Z,3.83
2022-10-10T11:23:16.277Z,3.03
2022-10-10T11:25:46.072Z,3.58
2022-10-10T11:28:40.422Z,3.10
2022-10-10T11:31:17.253Z,2.90
2022-10-10T11:33:52.530Z,2.58
2022-10-10T11:36:24.149Z,2.63
2022-10-10T11:39:15.360Z,3.00
2022-10-10T11:42:16.714Z,1.98
2022-10-10T11:44:48.508Z,1.90
2022-10-10T11:47:44.002Z,2.13
2022-10-10T11:50:18.660Z,2.72
2022-10-10T11:53:35.189Z,1.85
2022-10-10T11:56:27.733Z,2.00
2022-10-10T11:59:23.365Z,2.33
2022-10-10T12:01:54.064Z,1.63
2022-10-10T12:04:22.519Z,1.95
2022-10-10T12:07:01.256Z,2.08
2022-10-10T12:09:44.033Z,2.35
2022-10-10T12:12:16.012Z,1.90
2022-10-10T12:14:48.156Z,2.20
2022-10-10T12:17:24.883Z,1.83
2022-10-10T12:19:52.521Z,1.60
2022-10-10T12:22:25.758Z,1.83
2022-10-10T12:25:11.014Z,2.08
2022-10-10T12:28:23.687Z,1.90
2022-10-10T12:30:58.551Z,1.60
2022-10-10T12:33:48.833Z,1.58
2022-10-10T12:36:18.683Z,1.83
2022-10-10T12:39:06.565Z,1.95
2022-10-10T12:41:47.189Z,1.75
2022-10-10T12:44:26.016Z,2.60
2022-10-10T12:47:14.160Z,1.95
2022-10-10T12:50:03.260Z,2.15
2022-10-10T12:52:49.943Z,2.55
2022-10-10T12:55:39.608Z,1.65
2022-10-10T12:58:25.805Z,2.05
2022-10-10T13:00:55.018Z,2.22
2022-10-10T13:03:29.027Z,2.15
2022-10-10T13:06:00.546Z,2.83
2022-10-10T13:08:28.530Z,2.25
2022-10-10T13:11:08.886Z,1.92
2022-10-10T13:13:36.227Z,2.20
2022-10-10T13:16:18.280Z,2.58
2022-10-10T13:18:56.228Z,2.42
2022-10-10T13:21:31.471Z,2.53
2022-10-10T13:24:06.661Z,3.20
2022-10-10T13:26:53.934Z,2.35
2022-10-10T13:29:32.426Z,2.40
2022-10-10T13:32:06.168Z,2.47
2022-10-10T13:34:54.415Z,2.78
2022-10-10T13:37:21.777Z,2.40
2022-10-10T13:39:49.903Z,2.47
2022-10-10T13:42:24.014Z,2.92
2022-10-10T13:44:53.281Z,2.67
2022-10-10T13:47:47.190Z,2.15
2022-10-10T13:50:29.712Z,2.42
2022-10-10T13:53:27.326Z,2.92
2022-10-10T13:56:05.322Z,2.97
2022-10-10T13:58:38.843Z,2.95
2022-10-10T14:01:06.238Z,3.10
2022-10-10T14:03:33.935Z,3.13
2022-10-10T14:06:00.963Z,3.83
2022-10-10T14:08:32.133Z,2.30
2022-10-10T14:11:05.360Z,2.95
2022-10-10T14:13:34.314Z,3.25
2022-10-10T14:16:33.875Z,2.92
2022-10-10T14:19:00.822Z,2.65
2022-10-10T14:21:27.870Z,3.08
2022-10-10T14:23:54.759Z,2.85
2022-10-10T14:26:22.004Z,3.65
2022-10-10T14:28:49.495Z,2.85
2022-10-10T14:31:17.201Z,3.40
2022-10-10T14:33:44.180Z,3.53
2022-10-10T14:36:12.502Z,2.95
2022-10-10T14:38:39.518Z,2.92
2022-10-10T14:41:07.249Z,2.83
2022-10-10T14:43:34.263Z,3.13
2022-10-10T14:46:02.257Z,3.40
2022-10-10T14:48:29.479Z,4.07
2022-10-10T14:50:56.420Z,3.60
2022-10-10T14:53:23.611Z,4.35
2022-10-10T14:55:55.944Z,3.55
2022-10-10T14:58:23.201Z,2.95
2022-10-10T15:00:53.313Z,3.38
2022-10-10T15:03:21.073Z,3.53
2022-10-10T15:05:51.340Z,3.28
2022-10-10T15:08:19.178Z,3.53
2022-10-10T15:10:46.827Z,3.75
2022-10-10T15:13:14.552Z,3.30
2022-10-10T15:15:41.776Z,3.65
2022-10-10T15:18:26.667Z,3.42
2022-10-10T15:20:56.039Z,4.30
2022-10-10T15:23:22.859Z,3.85
2022-10-10T15:25:49.832Z,3.63
2022-10-10T15:28:16.781Z,3.17
2022-10-10T15:30:46.704Z,3.58
2022-10-10T15:33:13.709Z,3.90
2022-10-10T15:36:07.315Z,3.10
2022-10-10T15:38:28.352Z,4.40
2022-10-10T15:41:05.183Z,5.18
2022-10-10T15:43:42.772Z,4.15
2022-10-10T15:46:09.994Z,3.72
2022-10-10T15:48:36.917Z,3.20
2022-10-10T15:51:08.311Z,3.53
2022-10-10T15:53:35.324Z,3.40
2022-10-10T15:56:10.478Z,4.18
2022-10-10T15:58:39.087Z,4.80
2022-10-10T16:01:11.170Z,4.65
2022-10-10T16:03:38.124Z,6.53
2022-10-10T16:06:06.108Z,5.07
2022-10-10T16:08:33.060Z,3.92
2022-10-10T16:11:05.360Z,4.65
2022-10-10T16:13:33.394Z,4.15
2022-10-10T16:16:02.874Z,5.32
2022-10-10T16:18:31.041Z,4.15
2022-10-10T16:20:58.528Z,5.22
2022-10-10T16:23:25.922Z,5.47
2022-10-10T16:26:07.644Z,6.07
2022-10-10T16:28:35.082Z,5.95
2022-10-10T16:31:03.818Z,4.10
2022-10-10T16:33:41.380Z,4.18
2022-10-10T16:43:50.928Z,4.10
2022-10-10T16:46:20.822Z,4.22
2022-10-10T16:48:47.902Z,4.10
2022-10-10T16:51:17.308Z,5.30
2022-10-10T16:53:45.484Z,4.78
2022-10-10T16:56:14.843Z,4.97
2022-10-10T16:58:42.154Z,4.95
2022-10-10T17:01:10.810Z,4.57
2022-10-10T17:03:38.292Z,4.38
2022-10-10T17:06:07.879Z,4.47
2022-10-10T17:08:35.312Z,4.53
2022-10-10T17:11:02.460Z,4.72
2022-10-10T17:13:31.246Z,4.22
2022-10-10T17:16:08.747Z,4.32
2022-10-10T17:18:45.867Z,4.47
2022-10-10T17:21:15.676Z,4.40
2022-10-10T17:23:43.028Z,4.72
2022-10-10T17:26:12.644Z,4.00
2022-10-10T17:28:39.847Z,4.45
2022-10-10T17:31:12.570Z,3.83
2022-10-10T17:33:39.425Z,4.05
2022-10-10T17:36:08.416Z,4.45
2022-10-10T17:38:39.914Z,3.95
2022-10-10T17:41:08.160Z,4.10
2022-10-10T17:43:35.056Z,4.75
2022-10-10T17:46:29.452Z,5.50
2022-10-10T17:48:56.300Z,7.63
2022-10-10T17:51:23.297Z,6.15
2022-10-10T17:53:51.039Z,6.55
2022-10-10T17:56:19.998Z,6.00
2022-10-10T17:58:47.653Z,5.63
2022-10-10T18:01:17.135Z,6.13
2022-10-10T18:03:44.498Z,6.78
2022-10-10T18:06:14.030Z,6.93
2022-10-10T18:08:40.905Z,6.90
2022-10-10T18:11:15.202Z,7.05
2022-10-10T18:13:42.022Z,7.45
2022-10-10T18:16:11.183Z,7.65
2022-10-10T18:18:41.226Z,8.18
2022-10-10T18:21:09.457Z,8.88
2022-10-10T18:23:36.842Z,10.95
2022-10-10T18:26:12.081Z,10.13
2022-10-10T18:28:42.827Z,9.40
2022-10-10T18:31:14.222Z,10.40
2022-10-10T18:33:42.092Z,10.65
2022-10-10T18:36:09.719Z,10.35
2022-10-10T18:38:37.673Z,10.10
2022-10-10T18:41:06.712Z,10.25
2022-10-10T18:43:35.388Z,10.63
2022-10-10T18:46:03.625Z,11.73
2022-10-10T18:48:30.979Z,10.82
2022-10-10T18:51:09.002Z,12.98
2022-10-10T18:53:43.202Z,11.35
2022-10-10T18:56:12.241Z,12.00
2022-10-10T18:58:39.065Z,13.38
2022-10-10T19:01:13.328Z,14.25
2022-10-10T19:03:41.996Z,14.57
2022-10-10T19:06:11.014Z,6.90
2022-10-10T19:08:38.149Z,4.47
2022-10-10T19:11:06.749Z,4.32
2022-10-10T19:13:34.421Z,4.75
2022-10-10T19:16:07.918Z,4.00
2022-10-10T19:18:35.114Z,3.97
2022-10-10T19:21:04.833Z,3.95
2022-10-10T19:23:33.239Z,3.08
2022-10-10T19:26:08.376Z,3.95
2022-10-10T19:28:36.521Z,3.83
2022-10-10T19:31:09.399Z,2.83
2022-10-10T19:33:36.878Z,4.00
2022-10-10T19:36:05.643Z,2.67
2022-10-10T19:38:34.609Z,3.35
2022-10-10T19:41:02.036Z,3.20
2022-10-10T19:43:29.285Z,2.80
2022-10-10T19:45:56.230Z,3.40
2022-10-10T19:48:24.820Z,3.30
2022-10-10T19:50:55.764Z,3.65
2022-10-10T19:53:22.599Z,3.40
2022-10-10T19:56:01.135Z,3.45
2022-10-10T19:58:29.231Z,3.55
2022-10-10T20:00:56.295Z,2.88
2022-10-10T20:03:23.604Z,4.38
2022-10-10T20:05:50.458Z,4.05
2022-10-10T20:08:17.489Z,4.60
2022-10-10T20:10:46.378Z,4.30
2022-10-10T20:13:16.042Z,4.22
2022-10-10T20:15:44.170Z,3.13
2022-10-10T20:18:11.850Z,5.03
2022-10-10T20:20:42.437Z,4.07
2022-10-10T20:23:09.831Z,3.53
2022-10-10T20:25:38.999Z,4.55
2022-10-10T20:28:06.629Z,4.05
2022-10-10T20:30:34.302Z,3.63
2022-10-10T20:33:01.327Z,5.03
2022-10-10T20:35:28.146Z,5.22
2022-10-10T20:37:55.106Z,5.05
2022-10-10T20:40:21.958Z,4.10
2022-10-10T20:42:48.977Z,4.70
2022-10-10T20:45:15.859Z,3.95
2022-10-10T20:47:42.896Z,3.10
2022-10-10T20:50:09.964Z,3.80
2022-10-10T20:52:36.950Z,4.35
2022-10-10T20:55:04.418Z,4.50
2022-10-10T20:57:31.251Z,4.40
2022-10-10T20:59:58.028Z,5.75
2022-10-10T21:02:24.959Z,3.78
2022-10-10T21:04:51.822Z,3.58
2022-10-10T21:07:18.763Z,3.38
2022-10-10T21:09:45.839Z,4.65
2022-10-10T21:12:12.633Z,4.70
2022-10-10T21:14:39.549Z,3.95
2022-10-10T21:17:06.442Z,3.85
2022-10-10T21:19:33.281Z,4.22
2022-10-10T21:22:00.139Z,6.13
2022-10-10T21:24:26.954Z,5.20
2022-10-10T21:26:53.799Z,5.38
2022-10-10T21:29:20.575Z,4.93
2022-10-10T21:31:47.609Z,4.78
2022-10-10T21:34:18.888Z,6.68
2022-10-10T21:36:46.326Z,4.57
2022-10-10T21:39:14.288Z,4.22
2022-10-10T21:41:41.306Z,3.88
2022-10-10T21:44:08.422Z,5.47
2022-10-10T21:46:37.094Z,4.10
2022-10-10T21:49:10.082Z,4.15
2022-10-10T21:51:39.020Z,3.80
2022-10-10T21:54:07.952Z,4.38
2022-10-10T21:56:35.173Z,4.55
2022-10-10T21:59:02.329Z,3.95
2022-10-10T22:01:32.845Z,5.80
2022-10-10T22:04:00.487Z,3.95
2022-10-10T22:06:27.298Z,4.45
2022-10-10T22:08:57.217Z,4.82
2022-10-10T22:11:25.330Z,3.75
2022-10-10T22:13:52.846Z,4.30
2022-10-10T22:16:20.493Z,4.25
2022-10-10T22:18:47.308Z,4.05
2022-10-10T22:21:16.283Z,3.78
2022-10-10T22:23:44.267Z,3.92
2022-10-10T22:26:13.142Z,3.83
2022-10-10T22:28:40.184Z,3.60
2022-10-10T22:31:10.985Z,3.75
2022-10-10T22:33:38.225Z,3.40
2022-10-10T22:36:06.979Z,5.20
2022-10-10T22:38:38.493Z,4.05
2022-10-10T22:41:05.499Z,3.75
2022-10-10T22:43:32.456Z,3.95
2022-10-10T22:45:59.663Z,3.70
2022-10-10T22:48:27.579Z,3.65
2022-10-10T22:51:06.424Z,4.10
2022-10-10T22:53:33.267Z,3.78
2022-10-10T22:56:00.084Z,4.65
2022-10-10T22:58:27.115Z,4.30
2022-10-10T23:00:54.088Z,4.13
2022-10-10T23:03:21.164Z,3.78
2022-10-10T23:05:48.116Z,3.13
2022-10-10T23:08:15.427Z,3.65
2022-10-10T23:10:42.486Z,3.67
2022-10-10T23:13:09.365Z,3.33
2022-10-10T23:15:36.158Z,3.78
2022-10-10T23:18:03.375Z,3.58
2022-10-10T23:20:30.326Z,3.70
2022-10-10T23:22:57.432Z,3.22
2022-10-10T23:25:24.418Z,3.35
2022-10-10T23:27:51.595Z,2.53
2022-10-10T23:30:20.760Z,2.47
2022-10-10T23:32:48.160Z,2.72
2022-10-10T23:35:15.268Z,2.47
2022-10-10T23:37:42.104Z,2.47
2022-10-10T23:40:09.426Z,4.07
2022-10-10T23:42:36.264Z,3.35
2022-10-10T23:45:03.610Z,3.70
2022-10-10T23:47:30.490Z,4.72
2022-10-10T23:49:57.336Z,7.25
2022-10-10T23:52:24.223Z,9.55
2022-10-10T23:54:51.160Z,6.18
2022-10-10T23:57:18.047Z,3.42
2022-10-10T23:59:44.862Z,3.65
